sensor_id;sensor_type;location;lat;lon;timestamp;pressure;altitude;pressure_sealevel;temperature;humidity
20037;BME280;10179;42.640;23.312;2024-02-26T00:01:07;93261.03;;;13.19;51.49
20037;BME280;10179;42.640;23.312;2024-02-26T00:03:33;93251.56;;;13.18;51.44
20037;BME280;10179;42.640;23.312;2024-02-26T00:06:01;93218.38;;;12.95;51.31
20037;BME280;10179;42.640;23.312;2024-02-26T00:08:27;93238.28;;;13.07;51.36
20037;BME280;10179;42.640;23.312;2024-02-26T00:10:53;93248.63;;;13.14;51.37
20037;BME280;10179;42.640;23.312;2024-02-26T00:13:19;93085.09;;;12.12;51.14
20037;BME280;10179;42.640;23.312;2024-02-26T00:15:45;93241.50;;;13.14;51.14
20037;BME280;10179;42.640;23.312;2024-02-26T00:18:11;93147.38;;;12.51;51.12
20037;BME280;10179;42.640;23.312;2024-02-26T00:20:36;93228.81;;;13.11;51.24
20037;BME280;10179;42.640;23.312;2024-02-26T00:23:02;93243.50;;;13.29;51.34
20037;BME280;10179;42.640;23.312;2024-02-26T00:25:28;93207.72;;;13.11;51.51
20037;BME280;10179;42.640;23.312;2024-02-26T00:27:53;93242.25;;;13.37;51.73
20037;BME280;10179;42.640;23.312;2024-02-26T00:30:18;93214.94;;;13.21;51.50
20037;BME280;10179;42.640;23.312;2024-02-26T00:32:44;93219.25;;;13.27;51.75
20037;BME280;10179;42.640;23.312;2024-02-26T00:35:10;93241.53;;;13.47;51.74
20037;BME280;10179;42.640;23.312;2024-02-26T00:37:35;93234.97;;;13.49;51.71
20037;BME280;10179;42.640;23.312;2024-02-26T00:40:00;93176.66;;;13.19;51.81
20037;BME280;10179;42.640;23.312;2024-02-26T00:42:26;93222.34;;;13.56;51.75
20037;BME280;10179;42.640;23.312;2024-02-26T00:44:52;93199.00;;;13.38;51.47
20037;BME280;10179;42.640;23.312;2024-02-26T00:47:17;93227.06;;;13.54;51.31
20037;BME280;10179;42.640;23.312;2024-02-26T00:49:43;93185.75;;;13.28;51.28
20037;BME280;10179;42.640;23.312;2024-02-26T00:52:08;93223.63;;;13.49;51.41
20037;BME280;10179;42.640;23.312;2024-02-26T00:54:34;93188.22;;;13.12;51.44
20037;BME280;10179;42.640;23.312;2024-02-26T00:56:59;93095.38;;;12.73;51.51
20037;BME280;10179;42.640;23.312;2024-02-26T00:59:24;93186.81;;;13.32;51.58
20037;BME280;10179;42.640;23.312;2024-02-26T01:01:50;93203.81;;;13.46;51.65
20037;BME280;10179;42.640;23.312;2024-02-26T01:04:15;93241.28;;;13.48;51.51
20037;BME280;10179;42.640;23.312;2024-02-26T01:06:41;93124.34;;;13.05;51.70
20037;BME280;10179;42.640;23.312;2024-02-26T01:09:06;93200.16;;;13.52;51.91
20037;BME280;10179;42.640;23.312;2024-02-26T01:11:32;93180.03;;;13.41;51.78
20037;BME280;10179;42.640;23.312;2024-02-26T01:13:57;93182.69;;;13.41;51.53
20037;BME280;10179;42.640;23.312;2024-02-26T01:16:23;93151.97;;;13.30;51.82
20037;BME280;10179;42.640;23.312;2024-02-26T01:18:49;93199.72;;;13.66;51.89
20037;BME280;10179;42.640;23.312;2024-02-26T01:21:14;93201.84;;;13.69;51.93
20037;BME280;10179;42.640;23.312;2024-02-26T01:23:40;93204.53;;;13.74;51.89
20037;BME280;10179;42.640;23.312;2024-02-26T01:26:05;93198.72;;;13.77;51.62
20037;BME280;10179;42.640;23.312;2024-02-26T01:28:31;93190.25;;;13.75;51.44
20037;BME280;10179;42.640;23.312;2024-02-26T01:30:56;93143.13;;;13.41;51.47
20037;BME280;10179;42.640;23.312;2024-02-26T01:33:22;93051.97;;;12.81;51.33
20037;BME280;10179;42.640;23.312;2024-02-26T01:35:47;92847.66;;;11.41;51.35
20037;BME280;10179;42.640;23.312;2024-02-26T01:38:13;93193.41;;;13.67;51.56
20037;BME280;10179;42.640;23.312;2024-02-26T01:40:39;93188.63;;;13.64;51.64
20037;BME280;10179;42.640;23.312;2024-02-26T01:43:04;93085.56;;;12.96;51.68
20037;BME280;10179;42.640;23.312;2024-02-26T01:45:29;93194.69;;;13.64;51.62
20037;BME280;10179;42.640;23.312;2024-02-26T01:47:56;93174.84;;;13.51;51.71
20037;BME280;10179;42.640;23.312;2024-02-26T01:50:22;93198.09;;;13.59;51.90
20037;BME280;10179;42.640;23.312;2024-02-26T01:52:49;93175.84;;;13.45;51.83
20037;BME280;10179;42.640;23.312;2024-02-26T01:55:16;93184.34;;;13.52;51.86
20037;BME280;10179;42.640;23.312;2024-02-26T01:57:44;93186.19;;;13.52;51.97
20037;BME280;10179;42.640;23.312;2024-02-26T02:00:11;93182.19;;;13.49;52.04
20037;BME280;10179;42.640;23.312;2024-02-26T02:02:37;93146.72;;;13.30;52.04
20037;BME280;10179;42.640;23.312;2024-02-26T02:05:05;93185.91;;;13.48;52.30
20037;BME280;10179;42.640;23.312;2024-02-26T02:07:31;93131.31;;;13.17;52.29
20037;BME280;10179;42.640;23.312;2024-02-26T02:09:57;93178.50;;;13.50;52.32
20037;BME280;10179;42.640;23.312;2024-02-26T02:12:22;93159.44;;;13.38;52.22
20037;BME280;10179;42.640;23.312;2024-02-26T02:14:48;93168.50;;;13.52;52.20
20037;BME280;10179;42.640;23.312;2024-02-26T02:17:13;93154.47;;;13.42;52.16
20037;BME280;10179;42.640;23.312;2024-02-26T02:19:38;93162.69;;;13.50;52.11
20037;BME280;10179;42.640;23.312;2024-02-26T02:22:04;93176.47;;;13.63;52.04
20037;BME280;10179;42.640;23.312;2024-02-26T02:24:29;93106.03;;;13.21;51.92
20037;BME280;10179;42.640;23.312;2024-02-26T02:26:55;93133.28;;;13.31;51.72
20037;BME280;10179;42.640;23.312;2024-02-26T02:29:21;93133.75;;;13.23;51.84
20037;BME280;10179;42.640;23.312;2024-02-26T02:31:47;93170.56;;;13.45;52.04
20037;BME280;10179;42.640;23.312;2024-02-26T02:34:12;93148.06;;;13.32;52.25
20037;BME280;10179;42.640;23.312;2024-02-26T02:36:49;93064.06;;;12.77;52.18
20037;BME280;10179;42.640;23.312;2024-02-26T02:39:16;93207.00;;;13.48;52.14
20037;BME280;10179;42.640;23.312;2024-02-26T02:41:41;93165.50;;;13.39;52.40
20037;BME280;10179;42.640;23.312;2024-02-26T02:44:07;93158.69;;;13.48;52.37
20037;BME280;10179;42.640;23.312;2024-02-26T02:46:32;93176.94;;;13.49;52.39
20037;BME280;10179;42.640;23.312;2024-02-26T02:48:59;93172.06;;;13.36;52.43
20037;BME280;10179;42.640;23.312;2024-02-26T02:51:24;93182.34;;;13.32;52.79
20037;BME280;10179;42.640;23.312;2024-02-26T02:53:49;93193.53;;;13.50;52.89
20037;BME280;10179;42.640;23.312;2024-02-26T02:56:15;93188.56;;;13.53;52.79
20037;BME280;10179;42.640;23.312;2024-02-26T02:58:40;93192.25;;;13.52;52.62
20037;BME280;10179;42.640;23.312;2024-02-26T03:01:06;93124.69;;;13.14;52.66
20037;BME280;10179;42.640;23.312;2024-02-26T03:03:31;93186.97;;;13.52;52.78
20037;BME280;10179;42.640;23.312;2024-02-26T03:05:56;93191.19;;;13.53;52.61
20037;BME280;10179;42.640;23.312;2024-02-26T03:08:22;93196.22;;;13.55;52.68
20037;BME280;10179;42.640;23.312;2024-02-26T03:10:48;93194.63;;;13.54;52.79
20037;BME280;10179;42.640;23.312;2024-02-26T03:13:13;93211.25;;;13.54;52.78
20037;BME280;10179;42.640;23.312;2024-02-26T03:15:39;93192.53;;;13.56;52.91
20037;BME280;10179;42.640;23.312;2024-02-26T03:18:04;93176.94;;;13.49;52.77
20037;BME280;10179;42.640;23.312;2024-02-26T03:20:30;93192.31;;;13.63;52.79
20037;BME280;10179;42.640;23.312;2024-02-26T03:22:55;93185.72;;;13.65;52.66
20037;BME280;10179;42.640;23.312;2024-02-26T03:25:21;93144.69;;;13.42;52.75
20037;BME280;10179;42.640;23.312;2024-02-26T03:27:46;93172.56;;;13.70;52.64
20037;BME280;10179;42.640;23.312;2024-02-26T03:30:12;93168.06;;;13.71;52.70
20037;BME280;10179;42.640;23.312;2024-02-26T03:32:38;93169.66;;;13.72;52.62
20037;BME280;10179;42.640;23.312;2024-02-26T03:35:03;93162.28;;;13.74;52.63
20037;BME280;10179;42.640;23.312;2024-02-26T03:37:29;93172.34;;;13.77;52.67
20037;BME280;10179;42.640;23.312;2024-02-26T03:39:55;93141.13;;;13.64;52.63
20037;BME280;10179;42.640;23.312;2024-02-26T03:42:22;93154.34;;;13.69;52.43
20037;BME280;10179;42.640;23.312;2024-02-26T03:44:47;93169.72;;;13.82;52.26
20037;BME280;10179;42.640;23.312;2024-02-26T03:47:13;93159.94;;;13.82;52.33
20037;BME280;10179;42.640;23.312;2024-02-26T03:49:39;93167.63;;;13.84;52.39
20037;BME280;10179;42.640;23.312;2024-02-26T03:52:05;93158.66;;;13.85;52.21
20037;BME280;10179;42.640;23.312;2024-02-26T03:54:30;93145.94;;;13.77;52.20
20037;BME280;10179;42.640;23.312;2024-02-26T03:56:56;93167.13;;;13.87;52.04
20037;BME280;10179;42.640;23.312;2024-02-26T03:59:21;93165.50;;;13.86;51.73
20037;BME280;10179;42.640;23.312;2024-02-26T04:01:49;93170.78;;;13.81;52.00
20037;BME280;10179;42.640;23.312;2024-02-26T04:04:15;93080.78;;;13.30;51.92
20037;BME280;10179;42.640;23.312;2024-02-26T04:06:44;93155.22;;;13.79;51.98
20037;BME280;10179;42.640;23.312;2024-02-26T04:09:09;93160.19;;;13.76;51.94
20037;BME280;10179;42.640;23.312;2024-02-26T04:11:35;93127.84;;;13.48;51.84
20037;BME280;10179;42.640;23.312;2024-02-26T04:14:01;93159.59;;;13.64;52.04
20037;BME280;10179;42.640;23.312;2024-02-26T04:16:28;93152.19;;;13.60;52.27
20037;BME280;10179;42.640;23.312;2024-02-26T04:18:53;93126.25;;;13.47;52.37
20037;BME280;10179;42.640;23.312;2024-02-26T04:21:19;93138.94;;;13.50;52.23
20037;BME280;10179;42.640;23.312;2024-02-26T04:23:45;93152.69;;;13.57;52.26
20037;BME280;10179;42.640;23.312;2024-02-26T04:26:11;93145.56;;;13.53;52.15
20037;BME280;10179;42.640;23.312;2024-02-26T04:28:36;93092.00;;;13.15;52.30
20037;BME280;10179;42.640;23.312;2024-02-26T04:31:02;93090.66;;;13.12;52.57
20037;BME280;10179;42.640;23.312;2024-02-26T04:33:27;93147.84;;;13.44;52.68
20037;BME280;10179;42.640;23.312;2024-02-26T04:35:53;93140.50;;;13.46;52.79
20037;BME280;10179;42.640;23.312;2024-02-26T04:38:18;93142.88;;;13.48;52.96
20037;BME280;10179;42.640;23.312;2024-02-26T04:40:44;93116.69;;;13.36;52.98
20037;BME280;10179;42.640;23.312;2024-02-26T04:43:09;93050.88;;;12.72;52.70
20037;BME280;10179;42.640;23.312;2024-02-26T04:45:35;93123.31;;;13.39;52.87
20037;BME280;10179;42.640;23.312;2024-02-26T04:48:00;93107.59;;;13.22;52.83
20037;BME280;10179;42.640;23.312;2024-02-26T04:50:25;93145.41;;;13.32;53.12
20037;BME280;10179;42.640;23.312;2024-02-26T04:52:51;93125.97;;;13.06;53.55
20037;BME280;10179;42.640;23.312;2024-02-26T04:55:18;93148.53;;;13.24;53.48
20037;BME280;10179;42.640;23.312;2024-02-26T04:57:43;93069.84;;;12.74;53.70
20037;BME280;10179;42.640;23.312;2024-02-26T05:00:09;93103.72;;;12.92;53.68
20037;BME280;10179;42.640;23.312;2024-02-26T05:02:34;93143.94;;;13.14;53.74
20037;BME280;10179;42.640;23.312;2024-02-26T05:05:04;93166.72;;;13.26;53.81
20037;BME280;10179;42.640;23.312;2024-02-26T05:07:30;93169.91;;;13.28;53.56
20037;BME280;10179;42.640;23.312;2024-02-26T05:09:55;93149.25;;;13.20;53.51
20037;BME280;10179;42.640;23.312;2024-02-26T05:12:21;93117.94;;;12.91;53.59
20037;BME280;10179;42.640;23.312;2024-02-26T05:14:46;93169.31;;;13.21;53.70
20037;BME280;10179;42.640;23.312;2024-02-26T05:17:12;93179.69;;;13.27;53.54
20037;BME280;10179;42.640;23.312;2024-02-26T05:19:37;93191.03;;;13.28;53.75
20037;BME280;10179;42.640;23.312;2024-02-26T05:22:02;93199.72;;;13.28;53.67
20037;BME280;10179;42.640;23.312;2024-02-26T05:24:28;93145.97;;;13.02;53.67
20037;BME280;10179;42.640;23.312;2024-02-26T05:26:54;93199.47;;;13.30;53.80
20037;BME280;10179;42.640;23.312;2024-02-26T05:29:20;93123.13;;;12.81;53.80
20037;BME280;10179;42.640;23.312;2024-02-26T05:31:45;93201.56;;;13.28;53.92
20037;BME280;10179;42.640;23.312;2024-02-26T05:34:11;93203.41;;;13.27;53.87
20037;BME280;10179;42.640;23.312;2024-02-26T05:36:36;93197.59;;;13.25;54.03
20037;BME280;10179;42.640;23.312;2024-02-26T05:39:02;93204.94;;;13.23;53.94
20037;BME280;10179;42.640;23.312;2024-02-26T05:41:29;93167.97;;;12.86;53.85
20037;BME280;10179;42.640;23.312;2024-02-26T05:43:55;93218.56;;;13.15;54.05
20037;BME280;10179;42.640;23.312;2024-02-26T05:46:21;93212.50;;;13.14;54.41
20037;BME280;10179;42.640;23.312;2024-02-26T05:48:49;93213.28;;;13.15;54.29
20037;BME280;10179;42.640;23.312;2024-02-26T05:51:15;93224.63;;;13.16;54.65
20037;BME280;10179;42.640;23.312;2024-02-26T05:53:41;93193.19;;;13.09;54.40
20037;BME280;10179;42.640;23.312;2024-02-26T05:56:07;93197.69;;;13.08;54.42
20037;BME280;10179;42.640;23.312;2024-02-26T05:58:32;92848.09;;;10.84;54.40
20037;BME280;10179;42.640;23.312;2024-02-26T06:00:57;93211.66;;;13.09;54.53
20037;BME280;10179;42.640;23.312;2024-02-26T06:03:23;93206.63;;;13.07;54.65
20037;BME280;10179;42.640;23.312;2024-02-26T06:05:48;93161.53;;;12.72;54.62
20037;BME280;10179;42.640;23.312;2024-02-26T06:08:14;93232.81;;;13.14;54.88
20037;BME280;10179;42.640;23.312;2024-02-26T06:10:39;93183.22;;;12.84;54.99
20037;BME280;10179;42.640;23.312;2024-02-26T06:13:05;93224.63;;;13.16;54.87
20037;BME280;10179;42.640;23.312;2024-02-26T06:15:30;93202.66;;;13.05;54.87
20037;BME280;10179;42.640;23.312;2024-02-26T06:17:56;93230.75;;;13.21;55.05
20037;BME280;10179;42.640;23.312;2024-02-26T06:20:21;93223.16;;;13.25;55.01
20037;BME280;10179;42.640;23.312;2024-02-26T06:22:47;93133.53;;;12.65;54.95
20037;BME280;10179;42.640;23.312;2024-02-26T06:25:12;93240.25;;;13.22;55.26
20037;BME280;10179;42.640;23.312;2024-02-26T06:27:38;93225.19;;;13.18;55.42
20037;BME280;10179;42.640;23.312;2024-02-26T06:30:04;93234.69;;;13.19;55.82
20037;BME280;10179;42.640;23.312;2024-02-26T06:32:29;93226.84;;;13.24;55.66
20037;BME280;10179;42.640;23.312;2024-02-26T06:34:55;93210.16;;;13.18;55.68
20037;BME280;10179;42.640;23.312;2024-02-26T06:37:21;93168.06;;;12.96;55.56
20037;BME280;10179;42.640;23.312;2024-02-26T06:39:46;93156.22;;;12.99;55.58
20037;BME280;10179;42.640;23.312;2024-02-26T06:42:12;93190.91;;;13.18;54.99
20037;BME280;10179;42.640;23.312;2024-02-26T06:44:37;93239.69;;;13.47;54.98
20037;BME280;10179;42.640;23.312;2024-02-26T06:47:03;93232.88;;;13.51;55.00
20037;BME280;10179;42.640;23.312;2024-02-26T06:49:29;93188.78;;;13.20;54.77
20037;BME280;10179;42.640;23.312;2024-02-26T06:51:55;93234.75;;;13.56;54.74
20037;BME280;10179;42.640;23.312;2024-02-26T06:54:20;93232.94;;;13.61;54.68
20037;BME280;10179;42.640;23.312;2024-02-26T06:56:46;93229.84;;;13.70;54.55
20037;BME280;10179;42.640;23.312;2024-02-26T06:59:11;93232.50;;;13.75;54.54
20037;BME280;10179;42.640;23.312;2024-02-26T07:01:37;93235.25;;;13.90;54.70
20037;BME280;10179;42.640;23.312;2024-02-26T07:04:02;93161.72;;;13.67;54.43
20037;BME280;10179;42.640;23.312;2024-02-26T07:06:28;93271.84;;;14.19;53.26
20037;BME280;10179;42.640;23.312;2024-02-26T07:08:53;93238.00;;;14.16;53.16
20037;BME280;10179;42.640;23.312;2024-02-26T07:11:19;93201.09;;;13.78;52.96
20037;BME280;10179;42.640;23.312;2024-02-26T07:13:46;93126.53;;;13.13;53.05
20037;BME280;10179;42.640;23.312;2024-02-26T07:16:12;93244.25;;;13.99;53.23
20037;BME280;10179;42.640;23.312;2024-02-26T07:18:38;93207.69;;;13.76;53.32
20037;BME280;10179;42.640;23.312;2024-02-26T07:21:04;93203.41;;;13.65;52.96
20037;BME280;10179;42.640;23.312;2024-02-26T07:23:30;93239.47;;;13.96;52.90
20037;BME280;10179;42.640;23.312;2024-02-26T07:25:56;93003.19;;;12.36;52.73
20037;BME280;10179;42.640;23.312;2024-02-26T07:28:21;93248.47;;;13.95;52.70
20037;BME280;10179;42.640;23.312;2024-02-26T07:30:47;93246.09;;;13.99;52.84
20037;BME280;10179;42.640;23.312;2024-02-26T07:33:12;93245.34;;;14.03;52.75
20037;BME280;10179;42.640;23.312;2024-02-26T07:35:38;93245.34;;;14.03;52.39
20037;BME280;10179;42.640;23.312;2024-02-26T07:38:04;93225.22;;;13.92;52.18
20037;BME280;10179;42.640;23.312;2024-02-26T07:40:30;93235.28;;;14.00;52.27
20037;BME280;10179;42.640;23.312;2024-02-26T07:42:55;93242.25;;;14.17;52.09
20037;BME280;10179;42.640;23.312;2024-02-26T07:45:21;93243.06;;;14.22;52.03
20037;BME280;10179;42.640;23.312;2024-02-26T07:47:47;93246.50;;;14.28;51.84
20037;BME280;10179;42.640;23.312;2024-02-26T07:50:12;93243.41;;;14.36;51.70
20037;BME280;10179;42.640;23.312;2024-02-26T07:52:38;93158.66;;;13.85;51.80
20037;BME280;10179;42.640;23.312;2024-02-26T07:55:04;93216.94;;;14.26;52.01
20037;BME280;10179;42.640;23.312;2024-02-26T07:57:31;92969.66;;;12.63;52.07
20037;BME280;10179;42.640;23.312;2024-02-26T07:59:56;93209.47;;;14.18;52.34
20037;BME280;10179;42.640;23.312;2024-02-26T08:02:22;93233.91;;;14.40;52.36
20037;BME280;10179;42.640;23.312;2024-02-26T08:04:47;93119.50;;;13.67;52.32
20037;BME280;10179;42.640;23.312;2024-02-26T08:07:13;93136.50;;;13.91;52.45
20037;BME280;10179;42.640;23.312;2024-02-26T08:09:38;92866.19;;;12.26;52.30
20037;BME280;10179;42.640;23.312;2024-02-26T08:12:04;93246.72;;;14.74;52.11
20037;BME280;10179;42.640;23.312;2024-02-26T08:14:30;93202.28;;;14.61;51.65
20037;BME280;10179;42.640;23.312;2024-02-26T08:16:58;93217.13;;;14.72;51.21
20037;BME280;10179;42.640;23.312;2024-02-26T08:19:24;93162.06;;;14.43;51.38
20037;BME280;10179;42.640;23.312;2024-02-26T08:21:49;93105.16;;;14.10;51.32
20037;BME280;10179;42.640;23.312;2024-02-26T08:24:15;93232.50;;;15.00;50.95
20037;BME280;10179;42.640;23.312;2024-02-26T08:26:40;93127.94;;;14.37;50.48
20037;BME280;10179;42.640;23.312;2024-02-26T08:29:06;93239.44;;;15.17;50.64
20037;BME280;10179;42.640;23.312;2024-02-26T08:31:31;93243.13;;;15.26;49.50
20037;BME280;10179;42.640;23.312;2024-02-26T08:33:56;93171.16;;;14.98;49.16
20037;BME280;10179;42.640;23.312;2024-02-26T08:36:23;93226.75;;;15.44;48.67
20037;BME280;10179;42.640;23.312;2024-02-26T08:38:49;93232.56;;;15.51;48.32
20037;BME280;10179;42.640;23.312;2024-02-26T08:41:14;93236.25;;;15.56;48.15
20037;BME280;10179;42.640;23.312;2024-02-26T08:43:39;93197.63;;;15.29;47.80
20037;BME280;10179;42.640;23.312;2024-02-26T08:46:08;93232.53;;;15.62;47.84
20037;BME280;10179;42.640;23.312;2024-02-26T08:48:34;93227.25;;;15.62;47.47
20037;BME280;10179;42.640;23.312;2024-02-26T08:50:59;93135.75;;;15.10;47.44
20037;BME280;10179;42.640;23.312;2024-02-26T08:53:25;93230.72;;;15.78;47.51
20037;BME280;10179;42.640;23.312;2024-02-26T08:55:52;93178.03;;;15.56;47.22
20037;BME280;10179;42.640;23.312;2024-02-26T08:58:17;93080.72;;;14.61;47.28
20037;BME280;10179;42.640;23.312;2024-02-26T09:00:42;93224.56;;;16.08;46.40
20037;BME280;10179;42.640;23.312;2024-02-26T09:03:08;93200.22;;;15.95;46.48
20037;BME280;10179;42.640;23.312;2024-02-26T09:05:33;93068.53;;;15.21;46.24
20037;BME280;10179;42.640;23.312;2024-02-26T09:07:59;93171.13;;;15.80;46.50
20037;BME280;10179;42.640;23.312;2024-02-26T09:10:24;93153.13;;;15.72;45.99
20037;BME280;10179;42.640;23.312;2024-02-26T09:12:50;92904.22;;;14.17;45.90
20037;BME280;10179;42.640;23.312;2024-02-26T09:15:15;93239.59;;;16.28;45.51
20037;BME280;10179;42.640;23.312;2024-02-26T09:17:41;93166.91;;;15.74;45.66
20037;BME280;10179;42.640;23.312;2024-02-26T09:20:06;93174.78;;;16.05;45.59
20037;BME280;10179;42.640;23.312;2024-02-26T09:22:34;93173.47;;;15.97;45.54
20037;BME280;10179;42.640;23.312;2024-02-26T09:25:00;93175.81;;;16.09;45.35
20037;BME280;10179;42.640;23.312;2024-02-26T09:27:25;93201.16;;;16.40;45.00
20037;BME280;10179;42.640;23.312;2024-02-26T09:29:50;93135.06;;;15.94;45.03
20037;BME280;10179;42.640;23.312;2024-02-26T09:32:16;93187.91;;;16.35;45.34
20037;BME280;10179;42.640;23.312;2024-02-26T09:34:42;93173.59;;;16.31;45.21
20037;BME280;10179;42.640;23.312;2024-02-26T09:37:07;93186.81;;;16.41;45.21
20037;BME280;10179;42.640;23.312;2024-02-26T09:39:33;93166.69;;;16.35;44.42
20037;BME280;10179;42.640;23.312;2024-02-26T09:42:00;93216.38;;;16.74;44.69
20037;BME280;10179;42.640;23.312;2024-02-26T09:44:29;93087.88;;;16.07;44.37
20037;BME280;10179;42.640;23.312;2024-02-26T09:46:56;93209.44;;;16.83;44.05
20037;BME280;10179;42.640;23.312;2024-02-26T09:49:23;93131.75;;;16.33;44.04
20037;BME280;10179;42.640;23.312;2024-02-26T09:51:50;93222.69;;;16.88;43.99
20037;BME280;10179;42.640;23.312;2024-02-26T09:54:17;93195.09;;;16.84;44.05
20037;BME280;10179;42.640;23.312;2024-02-26T09:56:44;93171.34;;;16.64;44.13
20037;BME280;10179;42.640;23.312;2024-02-26T09:59:15;93196.13;;;16.93;44.35
20037;BME280;10179;42.640;23.312;2024-02-26T10:01:44;93141.66;;;16.62;43.91
20037;BME280;10179;42.640;23.312;2024-02-26T10:04:11;93191.94;;;16.82;43.86
20037;BME280;10179;42.640;23.312;2024-02-26T10:06:37;92850.19;;;14.89;43.61
20037;BME280;10179;42.640;23.312;2024-02-26T10:09:03;93182.44;;;17.15;43.74
20037;BME280;10179;42.640;23.312;2024-02-26T10:11:32;93162.13;;;17.01;43.75
20037;BME280;10179;42.640;23.312;2024-02-26T10:13:57;93149.84;;;17.10;43.26
20037;BME280;10179;42.640;23.312;2024-02-26T10:16:24;93084.31;;;16.71;43.28
20037;BME280;10179;42.640;23.312;2024-02-26T10:18:51;93176.22;;;17.30;42.98
20037;BME280;10179;42.640;23.312;2024-02-26T10:21:18;93066.34;;;16.63;43.20
20037;BME280;10179;42.640;23.312;2024-02-26T10:23:45;93142.41;;;17.12;43.11
20037;BME280;10179;42.640;23.312;2024-02-26T10:26:12;93141.84;;;17.15;43.01
20037;BME280;10179;42.640;23.312;2024-02-26T10:28:39;93047.84;;;16.53;42.66
20037;BME280;10179;42.640;23.312;2024-02-26T10:31:05;93167.19;;;17.31;42.94
20037;BME280;10179;42.640;23.312;2024-02-26T10:33:35;93070.00;;;16.67;42.82
20037;BME280;10179;42.640;23.312;2024-02-26T10:36:07;93083.91;;;16.93;42.97
20037;BME280;10179;42.640;23.312;2024-02-26T10:38:34;93133.81;;;17.25;42.83
20037;BME280;10179;42.640;23.312;2024-02-26T10:41:04;93084.66;;;16.99;42.36
20037;BME280;10179;42.640;23.312;2024-02-26T10:43:30;93088.31;;;17.08;42.21
20037;BME280;10179;42.640;23.312;2024-02-26T10:45:56;93118.16;;;17.24;42.00
20037;BME280;10179;42.640;23.312;2024-02-26T10:48:22;93038.16;;;16.77;41.78
20037;BME280;10179;42.640;23.312;2024-02-26T10:50:48;93140.47;;;17.52;41.85
20037;BME280;10179;42.640;23.312;2024-02-26T10:53:18;93162.22;;;17.54;41.79
20037;BME280;10179;42.640;23.312;2024-02-26T10:55:52;93125.19;;;17.38;41.58
20037;BME280;10179;42.640;23.312;2024-02-26T10:58:20;93173.84;;;17.58;41.54
20037;BME280;10179;42.640;23.312;2024-02-26T11:00:46;93145.78;;;17.52;41.49
20037;BME280;10179;42.640;23.312;2024-02-26T11:03:14;93079.81;;;17.06;41.63
20037;BME280;10179;42.640;23.312;2024-02-26T11:05:43;93068.66;;;17.09;41.66
20037;BME280;10179;42.640;23.312;2024-02-26T11:08:11;93144.66;;;17.58;41.17
20037;BME280;10179;42.640;23.312;2024-02-26T11:10:37;93106.38;;;17.35;41.09
20037;BME280;10179;42.640;23.312;2024-02-26T11:13:04;93145.69;;;17.62;40.87
20037;BME280;10179;42.640;23.312;2024-02-26T11:15:30;93134.03;;;17.58;41.19
20037;BME280;10179;42.640;23.312;2024-02-26T11:17:59;93144.00;;;17.71;40.95
20037;BME280;10179;42.640;23.312;2024-02-26T11:20:28;93147.97;;;17.74;40.80
20037;BME280;10179;42.640;23.312;2024-02-26T11:22:54;92859.72;;;15.84;40.89
20037;BME280;10179;42.640;23.312;2024-02-26T11:25:20;93150.63;;;17.74;40.68
20037;BME280;10179;42.640;23.312;2024-02-26T11:27:53;93023.69;;;16.93;40.60
20037;BME280;10179;42.640;23.312;2024-02-26T11:30:22;93147.72;;;17.70;40.35
20037;BME280;10179;42.640;23.312;2024-02-26T11:32:49;93003.13;;;16.80;40.68
20037;BME280;10179;42.640;23.312;2024-02-26T11:35:16;93138.78;;;17.61;40.94
20037;BME280;10179;42.640;23.312;2024-02-26T11:37:56;93106.91;;;17.61;40.77
20037;BME280;10179;42.640;23.312;2024-02-26T11:40:25;93015.66;;;17.04;41.22
20037;BME280;10179;42.640;23.312;2024-02-26T11:42:51;93130.13;;;17.79;40.75
20037;BME280;10179;42.640;23.312;2024-02-26T11:48:22;93125.84;;;17.83;40.64
20037;BME280;10179;42.640;23.312;2024-02-26T11:50:50;93124.81;;;17.79;40.77
20037;BME280;10179;42.640;23.312;2024-02-26T11:55:47;93077.31;;;17.49;40.76
20037;BME280;10179;42.640;23.312;2024-02-26T11:58:13;93103.16;;;17.67;40.60
20037;BME280;10179;42.640;23.312;2024-02-26T12:00:42;93119.38;;;17.89;40.30
20037;BME280;10179;42.640;23.312;2024-02-26T12:03:08;93096.97;;;17.77;40.46
20037;BME280;10179;42.640;23.312;2024-02-26T12:05:36;93088.28;;;17.66;39.67
20037;BME280;10179;42.640;23.312;2024-02-26T12:08:04;93096.28;;;17.61;39.76
20037;BME280;10179;42.640;23.312;2024-02-26T12:10:40;93127.66;;;17.88;40.02
20037;BME280;10179;42.640;23.312;2024-02-26T12:13:10;93135.88;;;17.86;39.65
20037;BME280;10179;42.640;23.312;2024-02-26T12:15:59;93079.91;;;17.54;39.51
20037;BME280;10179;42.640;23.312;2024-02-26T12:18:24;93138.84;;;17.85;39.37
20037;BME280;10179;42.640;23.312;2024-02-26T12:21:00;93147.56;;;17.91;40.11
20037;BME280;10179;42.640;23.312;2024-02-26T12:23:26;93129.22;;;17.89;39.75
20037;BME280;10179;42.640;23.312;2024-02-26T12:25:52;93131.06;;;17.94;39.49
20037;BME280;10179;42.640;23.312;2024-02-26T12:28:17;93067.16;;;17.56;39.46
20037;BME280;10179;42.640;23.312;2024-02-26T12:30:43;93151.16;;;18.00;38.54
20037;BME280;10179;42.640;23.312;2024-02-26T12:33:08;93135.22;;;18.00;38.61
20037;BME280;10179;42.640;23.312;2024-02-26T12:35:35;93149.59;;;17.99;38.94
20037;BME280;10179;42.640;23.312;2024-02-26T12:38:00;93151.69;;;18.02;38.40
20037;BME280;10179;42.640;23.312;2024-02-26T12:40:26;93140.41;;;18.10;38.29
20037;BME280;10179;42.640;23.312;2024-02-26T12:42:53;93135.66;;;18.07;38.31
20037;BME280;10179;42.640;23.312;2024-02-26T12:45:20;93146.25;;;18.12;38.05
20037;BME280;10179;42.640;23.312;2024-02-26T12:47:46;93138.28;;;18.12;38.13
20037;BME280;10179;42.640;23.312;2024-02-26T12:50:12;93131.84;;;18.18;38.06